Time;durP1;ratioP1;P1;durP2;ratioP2;P2;SDS_P1;SDS_P2;PMS_P1;PMS_P2;Temp;Humidity;BMP_temperature;BMP_pressure;BME280_temperature;BME280_humidity;BME280_pressure;Samples;Min_cycle;Max_cycle;Signal;HPM_P1;HPM_P2
2024/04/05 00:01:27;;;;;;;10.57;3.80;;;13.00;99.90;;;;;;5015457;28;20214;-72
2024/04/05 00:03:54;;;;;;;7.50;4.23;;;12.90;99.90;;;;;;5015123;28;20200;-72
2024/04/05 00:06:20;;;;;;;12.20;4.83;;;12.90;99.90;;;;;;5014829;28;20529;-72
2024/04/05 00:08:45;;;;;;;6.53;3.80;;;12.90;99.90;;;;;;5014760;28;20240;-72
2024/04/05 00:11:11;;;;;;;7.80;4.20;;;12.90;99.90;;;;;;5014383;28;20845;-72
2024/04/05 00:13:37;;;;;;;7.50;3.73;;;12.90;99.90;;;;;;5014487;28;20208;-72
2024/04/05 00:16:06;;;;;;;6.03;4.10;;;12.80;99.90;;;;;;5015068;28;20555;-72
2024/04/05 00:18:35;;;;;;;8.73;3.93;;;12.90;99.90;;;;;;5004130;28;20227;-72
2024/04/05 00:21:02;;;;;;;9.47;4.10;;;12.80;99.90;;;;;;4995348;28;20196;-72
2024/04/05 00:23:28;;;;;;;6.53;3.87;;;12.80;99.90;;;;;;4995436;28;20181;-72
2024/04/05 00:26:01;;;;;;;11.50;3.97;;;12.80;99.90;;;;;;4978444;28;20230;-72
2024/04/05 00:28:27;;;;;;;6.83;3.97;;;12.70;99.90;;;;;;5009435;28;20172;-73
2024/04/05 00:30:53;;;;;;;7.57;3.97;;;12.70;99.90;;;;;;5015858;28;20315;-72
2024/04/05 00:33:19;;;;;;;7.73;3.70;;;12.60;99.90;;;;;;5015832;28;20619;-72
2024/04/05 00:35:50;;;;;;;5.97;3.70;;;12.60;99.90;;;;;;5016135;28;20177;-73
2024/04/05 00:38:17;;;;;;;10.07;4.10;;;12.60;99.90;;;;;;5015341;28;20219;-72
2024/04/05 00:40:42;;;;;;;6.97;3.70;;;12.50;99.90;;;;;;5013930;28;20220;-72
2024/04/05 00:43:08;;;;;;;10.57;4.03;;;12.50;99.90;;;;;;5013962;28;20207;-72
2024/04/05 00:45:34;;;;;;;9.00;4.37;;;12.50;99.90;;;;;;5014069;28;20168;-72
2024/04/05 00:48:01;;;;;;;4.80;3.70;;;12.40;99.90;;;;;;5013923;28;20279;-72
2024/04/05 00:50:30;;;;;;;5.97;4.17;;;12.40;99.90;;;;;;5013997;28;20177;-72
2024/04/05 00:52:58;;;;;;;9.80;4.50;;;12.30;99.90;;;;;;5014008;28;20179;-72
2024/04/05 00:55:24;;;;;;;8.27;4.03;;;12.30;99.90;;;;;;5013534;28;20172;-72
2024/04/05 00:57:50;;;;;;;8.00;3.93;;;12.30;99.90;;;;;;5013602;28;20664;-72
2024/04/05 01:00:17;;;;;;;5.97;3.83;;;12.30;99.90;;;;;;5013658;28;20262;-72
2024/04/05 01:02:43;;;;;;;6.87;3.63;;;12.30;99.90;;;;;;5013743;28;20172;-72
2024/04/05 01:05:09;;;;;;;6.57;3.73;;;12.30;99.90;;;;;;5013688;28;20587;-71
2024/04/05 01:07:34;;;;;;;11.37;4.07;;;12.30;99.90;;;;;;5013252;28;20172;-72
2024/04/05 01:10:00;;;;;;;7.63;4.10;;;12.20;99.90;;;;;;5013371;28;20176;-72
2024/04/05 01:12:25;;;;;;;8.53;4.20;;;12.20;99.90;;;;;;5013468;28;20204;-72
2024/04/05 01:14:52;;;;;;;10.67;4.50;;;12.10;99.90;;;;;;5013307;28;20204;-72
2024/04/05 01:17:17;;;;;;;14.40;4.60;;;12.00;99.90;;;;;;5013114;28;20231;-72
2024/04/05 01:19:43;;;;;;;11.40;4.33;;;12.00;99.90;;;;;;5013526;28;20600;-72
2024/04/05 01:22:11;;;;;;;7.60;4.13;;;11.90;99.90;;;;;;5013693;28;20192;-72
2024/04/05 01:24:40;;;;;;;13.23;4.60;;;11.80;99.90;;;;;;5013661;28;20524;-72
2024/04/05 01:27:05;;;;;;;8.93;4.20;;;11.80;99.90;;;;;;5013732;28;20176;-72
2024/04/05 01:29:31;;;;;;;6.97;4.13;;;11.80;99.90;;;;;;5013358;28;20179;-72
2024/04/05 01:31:56;;;;;;;11.80;4.80;;;11.80;99.90;;;;;;5013187;28;20265;-72
2024/04/05 01:34:22;;;;;;;11.53;5.30;;;11.80;99.90;;;;;;5013433;28;20208;-72
2024/04/05 01:36:50;;;;;;;12.43;5.37;;;11.70;99.90;;;;;;5012947;28;20179;-72
2024/04/05 01:39:15;;;;;;;11.67;4.77;;;11.80;99.90;;;;;;5012461;28;20168;-72
2024/04/05 01:41:41;;;;;;;8.70;4.53;;;11.70;99.90;;;;;;5013223;28;20208;-72
2024/04/05 01:44:07;;;;;;;6.50;4.27;;;11.80;99.90;;;;;;5013423;28;20551;-73
2024/04/05 01:46:32;;;;;;;9.63;4.30;;;11.70;99.90;;;;;;5012962;28;20176;-72
2024/04/05 01:48:58;;;;;;;8.40;4.97;;;11.70;99.90;;;;;;5012676;28;20259;-72
2024/04/05 01:51:23;;;;;;;10.03;4.43;;;11.70;99.90;;;;;;5012938;28;20210;-72
2024/04/05 01:53:49;;;;;;;8.90;4.73;;;11.70;99.90;;;;;;5012832;28;20211;-72
2024/04/05 01:56:14;;;;;;;9.27;4.60;;;11.70;99.90;;;;;;5012779;28;20222;-72
2024/04/05 01:58:41;;;;;;;11.97;4.50;;;11.70;99.90;;;;;;5012714;28;20167;-72
2024/04/05 02:01:07;;;;;;;9.03;4.50;;;11.60;99.90;;;;;;5012933;28;20296;-72
2024/04/05 02:03:33;;;;;;;7.90;4.60;;;11.60;99.90;;;;;;5012811;28;20744;-72
2024/04/05 02:05:58;;;;;;;15.63;4.80;;;11.50;99.90;;;;;;5012885;28;20192;-73
2024/04/05 02:08:24;;;;;;;9.43;4.83;;;11.50;99.90;;;;;;5012797;28;20259;-72
2024/04/05 02:10:49;;;;;;;11.07;4.90;;;11.40;99.90;;;;;;5013077;28;20665;-72
2024/04/05 02:13:15;;;;;;;9.90;4.50;;;11.30;99.90;;;;;;5011677;28;20250;-72
2024/04/05 02:15:45;;;;;;;8.33;4.37;;;11.30;99.90;;;;;;5012929;28;20180;-72
2024/04/05 02:18:11;;;;;;;9.73;4.70;;;11.30;99.90;;;;;;5011713;28;20172;-72
2024/04/05 02:20:39;;;;;;;9.63;5.07;;;11.30;99.90;;;;;;5012338;28;20309;-72
2024/04/05 02:23:04;;;;;;;10.83;5.67;;;11.30;99.90;;;;;;5011406;28;20180;-72
2024/04/05 02:25:30;;;;;;;10.23;4.83;;;11.30;99.90;;;;;;5012671;28;20169;-73
2024/04/05 02:27:56;;;;;;;13.47;5.40;;;11.40;99.90;;;;;;5012306;28;20181;-72
2024/04/05 02:30:24;;;;;;;10.83;4.80;;;11.40;99.90;;;;;;5012482;28;20180;-72
2024/04/05 02:32:49;;;;;;;9.40;4.97;;;11.40;99.90;;;;;;5036599;23;20227;-75
2024/04/05 02:35:15;;;;;;;13.07;5.37;;;11.30;99.90;;;;;;5011823;28;20343;-75
2024/04/05 02:37:41;;;;;;;9.60;5.30;;;11.30;99.90;;;;;;5012136;28;20168;-75
2024/04/05 02:40:08;;;;;;;11.33;5.07;;;11.30;99.90;;;;;;5015659;28;20312;-78
2024/04/05 02:42:33;;;;;;;14.50;5.43;;;11.30;99.90;;;;;;5013674;28;20696;-75
2024/04/05 02:44:59;;;;;;;11.30;5.23;;;11.20;99.90;;;;;;5011592;28;20183;-75
2024/04/05 02:47:24;;;;;;;14.10;5.67;;;11.20;99.90;;;;;;5011396;28;20258;-75
2024/04/05 02:49:53;;;;;;;15.00;6.10;;;11.20;99.90;;;;;;5011571;28;20176;-76
2024/04/05 02:52:19;;;;;;;9.87;6.00;;;11.20;99.90;;;;;;5011025;28;20218;-75
2024/04/05 02:54:44;;;;;;;8.83;5.70;;;11.20;99.90;;;;;;5011487;28;20207;-76
2024/04/05 02:57:10;;;;;;;7.67;5.60;;;11.20;99.90;;;;;;5011465;28;20188;-76
2024/04/05 02:59:35;;;;;;;14.77;7.00;;;11.20;99.90;;;;;;5002655;28;20173;-76
2024/04/05 03:02:01;;;;;;;21.60;7.70;;;11.20;99.90;;;;;;4992012;28;20224;-76
2024/04/05 03:04:26;;;;;;;17.80;6.37;;;11.20;99.90;;;;;;4991882;28;20657;-76
2024/04/05 03:06:52;;;;;;;16.80;5.87;;;11.20;99.90;;;;;;4991761;28;20184;-75
2024/04/05 03:09:18;;;;;;;16.43;6.70;;;11.20;99.90;;;;;;4991730;28;20264;-75
2024/04/05 03:11:44;;;;;;;13.63;6.97;;;11.20;99.90;;;;;;4991674;28;20284;-75
2024/04/05 03:14:09;;;;;;;12.43;6.77;;;11.30;99.90;;;;;;4991821;28;20219;-76
2024/04/05 03:16:35;;;;;;;16.37;6.37;;;11.30;99.90;;;;;;4991712;28;20200;-76
2024/04/05 03:19:00;;;;;;;12.13;6.60;;;11.30;99.90;;;;;;4991753;28;20226;-76
2024/04/05 03:21:26;;;;;;;13.47;6.60;;;11.30;99.90;;;;;;4991883;28;20547;-75
2024/04/05 03:23:52;;;;;;;13.70;6.13;;;11.30;99.90;;;;;;4991685;28;20181;-75
2024/04/05 03:26:18;;;;;;;10.70;5.70;;;11.30;99.90;;;;;;4991870;28;20175;-76
2024/04/05 03:28:45;;;;;;;18.17;6.30;;;11.40;99.90;;;;;;5006332;28;20370;-76
2024/04/05 03:31:11;;;;;;;13.90;6.37;;;11.50;99.90;;;;;;5011246;28;20634;-76
2024/04/05 03:33:36;;;;;;;15.07;6.20;;;11.50;99.90;;;;;;5010934;28;20228;-76
2024/04/05 03:36:05;;;;;;;11.57;6.20;;;11.50;99.90;;;;;;5011246;28;20239;-76
2024/04/05 03:38:30;;;;;;;16.57;6.67;;;11.60;99.90;;;;;;5010954;28;20569;-75
2024/04/05 03:40:56;;;;;;;14.83;6.83;;;11.60;99.90;;;;;;5009298;28;20218;-76
2024/04/05 03:43:22;;;;;;;11.90;5.77;;;11.60;99.90;;;;;;5011226;28;20238;-75
2024/04/05 03:45:48;;;;;;;16.20;6.23;;;11.60;99.90;;;;;;5010951;28;20531;-75
2024/04/05 03:48:13;;;;;;;19.00;6.10;;;11.60;99.90;;;;;;5011090;28;20165;-76
2024/04/05 03:50:39;;;;;;;13.17;5.50;;;11.60;99.90;;;;;;5010576;28;20188;-76
2024/04/05 03:53:04;;;;;;;9.33;6.00;;;11.60;99.90;;;;;;5011174;28;20206;-76
2024/04/05 03:55:30;;;;;;;12.13;6.13;;;11.60;99.90;;;;;;5010800;28;20168;-76
2024/04/05 03:57:55;;;;;;;14.13;6.67;;;11.60;99.90;;;;;;4997752;28;20254;-76
2024/04/05 04:00:21;;;;;;;11.10;5.93;;;11.60;99.90;;;;;;4990850;28;20169;-76
2024/04/05 04:02:52;;;;;;;15.77;6.50;;;11.60;99.90;;;;;;4991686;28;20196;-75
2024/04/05 04:05:18;;;;;;;13.57;6.50;;;11.60;99.90;;;;;;4994378;28;20185;-76
2024/04/05 04:07:44;;;;;;;11.93;6.77;;;11.60;99.90;;;;;;4994050;28;20177;-76
2024/04/05 04:10:11;;;;;;;13.87;6.93;;;11.70;99.90;;;;;;4994717;28;20288;-76
2024/04/05 04:12:38;;;;;;;12.23;7.03;;;11.70;99.90;;;;;;4994054;28;20202;-76
2024/04/05 04:15:05;;;;;;;14.53;8.37;;;11.70;99.90;;;;;;5013298;28;20210;-75
2024/04/05 04:17:30;;;;;;;10.83;7.90;;;11.70;99.90;;;;;;5013523;28;20176;-76
2024/04/05 04:19:59;;;;;;;15.53;7.33;;;11.70;99.90;;;;;;5013741;28;20634;-76
2024/04/05 04:22:25;;;;;;;12.23;6.73;;;11.70;99.90;;;;;;5013578;28;20192;-76
2024/04/05 04:24:50;;;;;;;10.73;7.10;;;11.70;99.90;;;;;;5013833;28;20271;-76
2024/04/05 04:27:17;;;;;;;13.00;6.50;;;11.70;99.90;;;;;;5013599;28;20180;-75
2024/04/05 04:29:43;;;;;;;13.17;6.23;;;11.70;99.90;;;;;;5012064;28;20656;-76
2024/04/05 04:32:09;;;;;;;12.30;6.27;;;11.70;99.90;;;;;;5013559;28;20235;-77
2024/04/05 04:34:34;;;;;;;18.43;6.50;;;11.70;99.90;;;;;;5013769;28;20200;-76
2024/04/05 04:37:00;;;;;;;12.93;6.97;;;11.70;99.90;;;;;;5013699;28;20176;-77
2024/04/05 04:39:26;;;;;;;9.90;6.60;;;11.70;99.90;;;;;;5013365;28;20251;-77
2024/04/05 04:41:51;;;;;;;12.80;7.27;;;11.60;99.90;;;;;;5013500;28;20680;-77
2024/04/05 04:44:17;;;;;;;12.43;5.93;;;11.70;99.90;;;;;;5013285;28;20184;-77
2024/04/05 04:46:42;;;;;;;13.77;6.20;;;11.60;99.90;;;;;;5011827;28;20199;-77
2024/04/05 04:49:08;;;;;;;11.20;7.47;;;11.70;99.90;;;;;;5013385;28;20653;-77
2024/04/05 04:51:34;;;;;;;10.37;6.33;;;11.60;99.90;;;;;;5013296;28;20192;-77
2024/04/05 04:53:59;;;;;;;13.37;6.87;;;11.60;99.90;;;;;;5013175;28;20207;-76
2024/04/05 04:56:30;;;;;;;12.17;6.97;;;11.70;99.90;;;;;;5013695;28;20180;-77
2024/04/05 04:58:56;;;;;;;12.80;6.27;;;11.60;99.90;;;;;;5013362;28;20661;-77
2024/04/05 05:01:22;;;;;;;10.73;6.50;;;11.70;99.90;;;;;;5004878;28;20251;-77
2024/04/05 05:03:48;;;;;;;15.13;7.67;;;11.70;99.90;;;;;;4998444;28;20671;-76
2024/04/05 05:06:14;;;;;;;16.23;7.17;;;11.70;99.90;;;;;;5013428;28;20303;-76
2024/04/05 05:08:39;;;;;;;15.53;6.40;;;11.70;99.90;;;;;;5012946;28;20641;-77
2024/04/05 05:11:05;;;;;;;12.93;6.63;;;11.70;99.90;;;;;;5013320;28;20204;-76
2024/04/05 05:13:31;;;;;;;14.67;6.90;;;11.70;99.90;;;;;;5013208;28;20262;-77
2024/04/05 05:15:57;;;;;;;11.47;6.13;;;11.70;99.90;;;;;;5012677;28;20610;-77
2024/04/05 05:18:23;;;;;;;14.77;6.47;;;11.70;99.90;;;;;;5007865;28;20263;-78
2024/04/05 05:20:49;;;;;;;16.90;6.37;;;11.70;99.90;;;;;;5001688;28;20626;-77
2024/04/05 05:23:15;;;;;;;15.50;6.77;;;11.70;99.90;;;;;;5013503;28;20196;-79
2024/04/05 05:25:45;;;;;;;10.67;6.43;;;11.70;99.90;;;;;;5013944;28;20189;-77
2024/04/05 05:28:11;;;;;;;12.70;6.57;;;11.70;99.90;;;;;;5013192;28;20176;-77
2024/04/05 05:30:37;;;;;;;15.30;6.20;;;11.70;99.90;;;;;;5013238;28;20174;-77
2024/04/05 05:33:07;;;;;;;15.73;6.00;;;11.80;99.90;;;;;;5013640;28;20282;-77
2024/04/05 05:35:33;;;;;;;13.60;6.53;;;11.80;99.90;;;;;;5011079;28;20183;-77
2024/04/05 05:38:00;;;;;;;12.73;5.90;;;11.80;99.90;;;;;;5012561;28;20180;-77
2024/04/05 05:40:26;;;;;;;12.00;6.57;;;11.80;99.90;;;;;;5011517;28;20179;-76
2024/04/05 05:42:52;;;;;;;13.73;7.03;;;11.90;99.90;;;;;;5012301;28;20191;-74
2024/04/05 05:45:21;;;;;;;12.43;6.43;;;11.90;99.90;;;;;;4993847;28;20502;-77
2024/04/05 05:47:52;;;;;;;17.00;6.23;;;11.90;99.90;;;;;;4992526;28;20169;-77
2024/04/05 05:50:18;;;;;;;17.70;6.70;;;12.00;99.90;;;;;;4994145;28;20224;-77
2024/04/05 05:52:43;;;;;;;19.00;6.70;;;12.00;99.90;;;;;;4992542;28;20558;-77
2024/04/05 05:55:09;;;;;;;12.70;6.63;;;12.00;99.90;;;;;;4992658;28;20292;-76
2024/04/05 05:57:35;;;;;;;13.23;6.60;;;12.10;99.90;;;;;;4992379;28;20173;-76
2024/04/05 06:00:01;;;;;;;15.07;6.23;;;12.10;99.90;;;;;;4992551;28;20724;-77
2024/04/05 06:02:26;;;;;;;14.83;6.73;;;12.10;99.90;;;;;;4992416;28;20185;-76
2024/04/05 06:04:52;;;;;;;21.37;7.37;;;12.20;99.90;;;;;;5000554;28;20183;-76
2024/04/05 06:07:17;;;;;;;12.47;6.07;;;12.20;99.90;;;;;;5010232;28;20175;-76
2024/04/05 06:09:52;;;;;;;18.80;7.27;;;12.30;99.90;;;;;;5011895;28;20239;-77
2024/04/05 06:12:18;;;;;;;13.00;6.33;;;12.40;99.90;;;;;;5010508;28;20199;-76
2024/04/05 06:14:43;;;;;;;12.10;6.50;;;12.60;99.90;;;;;;5011933;28;20258;-77
2024/04/05 06:17:09;;;;;;;12.40;6.73;;;12.70;99.90;;;;;;5011817;28;20179;-76
2024/04/05 06:19:36;;;;;;;12.77;6.33;;;12.80;99.90;;;;;;5011797;28;20535;-76
2024/04/05 06:22:02;;;;;;;13.37;6.37;;;13.10;99.90;;;;;;5002726;28;20189;-77
2024/04/05 06:24:27;;;;;;;12.33;6.07;;;13.30;99.90;;;;;;4992093;28;20181;-77
2024/04/05 06:26:53;;;;;;;12.57;6.03;;;13.40;99.90;;;;;;4991168;28;20263;-77
2024/04/05 06:29:18;;;;;;;11.93;5.27;;;13.60;99.90;;;;;;4996733;28;20188;-76
2024/04/05 06:31:44;;;;;;;13.23;5.83;;;13.60;99.90;;;;;;5006551;28;20217;-76
2024/04/05 06:34:10;;;;;;;10.77;5.50;;;13.60;99.90;;;;;;4990378;28;20681;-77
2024/04/05 06:36:37;;;;;;;13.50;5.43;;;13.70;99.90;;;;;;4991536;28;20173;-76
2024/04/05 06:39:04;;;;;;;13.70;5.90;;;13.70;99.90;;;;;;4991637;28;20169;-76
2024/04/05 06:41:31;;;;;;;11.43;5.40;;;13.80;99.90;;;;;;4992941;28;20665;-75
2024/04/05 06:43:57;;;;;;;8.63;5.10;;;13.90;99.90;;;;;;5009621;28;20707;-77
2024/04/05 06:46:24;;;;;;;11.97;4.77;;;14.00;99.90;;;;;;5011242;28;20255;-76
2024/04/05 06:48:50;;;;;;;11.97;5.57;;;14.10;99.90;;;;;;5010969;28;20194;-76
2024/04/05 06:51:20;;;;;;;12.30;5.10;;;14.10;99.90;;;;;;5011333;28;20192;-76
2024/04/05 06:53:46;;;;;;;10.97;5.03;;;14.20;99.90;;;;;;5011081;28;20196;-76
2024/04/05 06:56:11;;;;;;;10.93;5.17;;;14.30;99.90;;;;;;5010290;28;20173;-76
2024/04/05 06:58:37;;;;;;;13.63;6.17;;;14.40;99.90;;;;;;4991992;28;20172;-74
2024/04/05 07:01:03;;;;;;;12.27;5.10;;;14.40;99.90;;;;;;4991903;28;20275;-76
2024/04/05 07:03:29;;;;;;;8.97;4.73;;;14.50;99.90;;;;;;4992034;28;20250;-76
2024/04/05 07:06:03;;;;;;;7.47;4.70;;;14.50;99.90;;;;;;4992067;28;20185;-79
2024/04/05 07:08:30;;;;;;;9.07;4.57;;;14.60;99.90;;;;;;4991696;28;20223;-76
2024/04/05 07:10:56;;;;;;;10.77;5.03;;;14.50;99.90;;;;;;4992217;28;20650;-75
2024/04/05 07:13:25;;;;;;;8.30;4.50;;;14.50;99.90;;;;;;5011171;28;20172;-77
2024/04/05 07:15:52;;;;;;;12.93;5.27;;;14.50;99.90;;;;;;5012379;28;20234;-77
2024/04/05 07:18:24;;;;;;;11.80;4.97;;;14.40;99.90;;;;;;5013492;28;20171;-77
2024/04/05 07:20:50;;;;;;;14.43;5.57;;;14.40;99.90;;;;;;5013494;28;20175;-76
2024/04/05 07:23:15;;;;;;;10.47;4.63;;;14.50;99.90;;;;;;5014295;28;20165;-77
2024/04/05 07:25:41;;;;;;;9.53;5.40;;;14.60;99.90;;;;;;5010945;28;20259;-77
2024/04/05 07:28:07;;;;;;;11.87;4.30;;;14.70;99.90;;;;;;4993577;28;20173;-77
2024/04/05 07:30:35;;;;;;;11.73;5.00;;;14.80;99.90;;;;;;4993377;28;20204;-77
2024/04/05 07:33:01;;;;;;;10.40;4.23;;;14.90;99.90;;;;;;4994942;28;20220;-77
2024/04/05 07:35:26;;;;;;;9.10;4.57;;;14.90;99.90;;;;;;4993660;28;20286;-77
2024/04/05 07:37:53;;;;;;;10.87;5.00;;;14.90;99.90;;;;;;4998461;28;20586;-77
2024/04/05 07:40:23;;;;;;;7.20;4.57;;;14.90;99.90;;;;;;5000443;28;20268;-77
2024/04/05 07:42:53;;;;;;;9.00;4.33;;;14.90;99.90;;;;;;4999771;28;20181;-76
2024/04/05 07:45:20;;;;;;;6.20;4.10;;;14.90;99.90;;;;;;4997320;28;20654;-76
2024/04/05 07:47:50;;;;;;;11.47;4.83;;;15.00;99.90;;;;;;5013461;28;20550;-77
2024/04/05 07:50:16;;;;;;;10.27;4.43;;;15.10;99.90;;;;;;5015090;28;20177;-77
2024/04/05 07:52:42;;;;;;;9.30;4.17;;;15.20;99.90;;;;;;5014660;28;20188;-75
2024/04/05 07:55:08;;;;;;;5.93;3.83;;;15.20;99.90;;;;;;5015144;28;20282;-76
2024/04/05 07:57:36;;;;;;;6.23;4.17;;;15.10;99.90;;;;;;5014606;28;20168;-76
2024/04/05 08:00:03;;;;;;;10.30;4.30;;;15.10;99.90;;;;;;5011639;28;20219;-77
2024/04/05 08:02:29;;;;;;;6.93;3.83;;;15.00;99.90;;;;;;4994555;28;20224;-76
2024/04/05 08:04:55;;;;;;;5.93;4.20;;;14.90;99.90;;;;;;4994711;28;20176;-76
2024/04/05 08:07:24;;;;;;;6.23;3.80;;;14.90;99.90;;;;;;4994605;28;20174;-75
2024/04/05 08:09:53;;;;;;;8.10;3.80;;;14.80;99.90;;;;;;4995227;28;20173;-76
2024/04/05 08:12:19;;;;;;;8.47;3.90;;;14.80;99.90;;;;;;5014540;28;20546;-76
2024/04/05 08:14:45;;;;;;;8.47;3.80;;;14.80;99.90;;;;;;5013765;28;20522;-75
2024/04/05 08:17:12;;;;;;;9.43;4.37;;;14.90;99.90;;;;;;5014149;28;20171;-75
2024/04/05 08:19:38;;;;;;;6.50;3.73;;;14.90;99.90;;;;;;5013835;28;20249;-76
2024/04/05 08:22:04;;;;;;;5.40;3.67;;;14.90;99.90;;;;;;5014116;28;20259;-77
2024/04/05 08:24:30;;;;;;;4.93;3.63;;;14.90;99.90;;;;;;5014286;28;20172;-75
2024/04/05 08:26:55;;;;;;;8.13;4.10;;;14.90;99.90;;;;;;5014236;28;20657;-76
2024/04/05 08:29:24;;;;;;;8.00;3.90;;;15.00;99.90;;;;;;5014190;28;20180;-76
2024/04/05 08:31:50;;;;;;;6.33;3.90;;;15.10;99.90;;;;;;5038055;23;20236;-71
2024/04/05 08:34:16;;;;;;;8.10;4.17;;;15.10;99.90;;;;;;5014290;28;20204;-73
2024/04/05 08:36:48;;;;;;;8.77;3.93;;;15.20;99.90;;;;;;5014161;28;20192;-72
2024/04/05 08:39:18;;;;;;;6.80;4.03;;;15.20;99.90;;;;;;5014068;28;20263;-74
2024/04/05 08:41:45;;;;;;;6.33;4.10;;;15.30;99.90;;;;;;5007691;28;20221;-72
2024/04/05 08:44:12;;;;;;;5.43;3.80;;;15.40;99.90;;;;;;4993026;28;20616;-74
2024/04/05 08:46:42;;;;;;;5.20;3.83;;;15.50;99.90;;;;;;4994547;28;20638;-73
2024/04/05 08:49:10;;;;;;;8.13;4.63;;;15.60;99.90;;;;;;4993658;28;20180;-72
2024/04/05 08:51:37;;;;;;;6.40;4.10;;;15.60;99.90;;;;;;4994897;28;20243;-74
2024/04/05 08:54:03;;;;;;;12.20;4.17;;;15.70;99.90;;;;;;4995210;28;20201;-74
2024/04/05 08:56:29;;;;;;;6.90;3.57;;;15.80;99.90;;;;;;4996104;28;20165;-73
2024/04/05 08:58:59;;;;;;;6.17;3.80;;;15.90;99.90;;;;;;4993406;28;20213;-74
2024/04/05 09:01:25;;;;;;;7.43;3.93;;;16.00;99.90;;;;;;4994872;28;20197;-73
2024/04/05 09:03:51;;;;;;;6.43;3.97;;;16.00;99.90;;;;;;4995100;28;20180;-73
2024/04/05 09:06:17;;;;;;;6.67;3.60;;;16.10;99.90;;;;;;4994113;28;20235;-72
2024/04/05 09:08:46;;;;;;;6.73;3.50;;;16.10;99.90;;;;;;4994035;28;20177;-72
2024/04/05 09:11:25;;;;;;;9.10;4.07;;;16.20;99.90;;;;;;4993849;28;20653;-73
2024/04/05 09:13:58;;;;;;;8.93;4.10;;;16.30;99.90;;;;;;4993638;28;20197;-72
2024/04/05 09:16:25;;;;;;;7.63;3.87;;;16.50;99.90;;;;;;4992821;28;20173;-72
2024/04/05 09:18:51;;;;;;;4.00;3.37;;;16.70;99.90;;;;;;4993626;28;20714;-72
2024/04/05 09:21:18;;;;;;;8.10;3.87;;;17.00;99.90;;;;;;4995023;28;20208;-73
2024/04/05 09:23:49;;;;;;;5.53;3.23;;;17.20;99.90;;;;;;4994041;28;20255;-72
2024/04/05 09:26:19;;;;;;;8.07;3.50;;;17.50;99.90;;;;;;4994654;28;20187;-73
2024/04/05 09:28:56;;;;;;;5.60;3.43;;;17.60;99.90;;;;;;4993765;28;20177;-73
2024/04/05 09:31:23;;;;;;;4.63;3.57;;;17.70;99.90;;;;;;4993114;28;20196;-71
2024/04/05 09:33:48;;;;;;;4.57;3.67;;;17.60;99.90;;;;;;4992984;28;20339;-72
2024/04/05 09:36:17;;;;;;;5.63;3.57;;;17.50;99.90;;;;;;4993337;28;20252;-71
2024/04/05 09:38:45;;;;;;;4.00;3.67;;;17.30;99.90;;;;;;4992699;28;20256;-71
2024/04/05 09:41:13;;;;;;;4.20;3.77;;;17.10;99.90;;;;;;5008312;28;20263;-72
2024/04/05 09:43:40;;;;;;;8.23;3.10;;;16.90;99.90;;;;;;4993455;28;20195;-74
2024/04/05 09:46:08;;;;;;;6.40;3.00;;;16.70;99.90;;;;;;4992464;28;20243;-73
2024/04/05 09:48:34;;;;;;;7.30;3.20;;;16.60;99.90;;;;;;4992577;28;20247;-71
2024/04/05 09:51:04;;;;;;;7.73;3.60;;;16.50;99.90;;;;;;4992790;28;20260;-71
2024/04/05 09:53:32;;;;;;;6.43;3.73;;;16.50;99.90;;;;;;4992958;28;20540;-72
2024/04/05 09:56:02;;;;;;;6.20;3.53;;;16.50;99.90;;;;;;4992717;28;20177;-72
2024/04/05 09:58:28;;;;;;;6.67;3.23;;;16.50;99.90;;;;;;4992249;28;20235;-76
2024/04/05 10:00:54;;;;;;;6.20;3.30;;;16.50;99.90;;;;;;4992662;28;20191;-71
2024/04/05 10:03:20;;;;;;;5.00;3.67;;;16.60;99.90;;;;;;4992620;28;20665;-72
2024/04/05 10:05:46;;;;;;;7.33;3.00;;;16.80;99.90;;;;;;4992717;28;20260;-72
2024/04/05 10:08:16;;;;;;;5.70;2.93;;;16.90;99.90;;;;;;4992715;28;20630;-72
2024/04/05 10:10:42;;;;;;;5.00;2.83;;;17.10;99.90;;;;;;4992930;28;20169;-72
2024/04/05 10:13:16;;;;;;;4.90;3.87;;;17.30;99.90;;;;;;4992574;28;20809;-72
2024/04/05 10:16:04;;;;;;;5.70;3.50;;;17.40;99.90;;;;;;4992486;28;20193;-71
2024/04/05 10:18:37;;;;;;;6.57;3.27;;;17.50;99.90;;;;;;4992584;28;20396;-73
2024/04/05 10:21:03;;;;;;;3.83;3.10;;;17.50;99.90;;;;;;4992458;28;20176;-71
2024/04/05 10:23:29;;;;;;;4.87;3.53;;;17.50;99.90;;;;;;4992686;28;20193;-72
2024/04/05 10:25:55;;;;;;;6.37;3.70;;;17.40;99.90;;;;;;4992509;28;20618;-73
2024/04/05 10:28:23;;;;;;;9.73;3.37;;;17.30;99.90;;;;;;4992393;28;20271;-70
2024/04/05 10:30:49;;;;;;;7.77;3.63;;;17.20;99.90;;;;;;4992574;28;20181;-72
2024/04/05 10:33:19;;;;;;;6.30;4.10;;;17.10;99.90;;;;;;4992733;28;20630;-72
2024/04/05 10:35:46;;;;;;;4.43;3.60;;;17.10;99.90;;;;;;4993301;28;20185;-73
2024/04/05 10:38:12;;;;;;;6.50;3.83;;;17.00;99.90;;;;;;4991904;28;20208;-71
2024/04/05 10:40:38;;;;;;;4.83;3.30;;;16.90;99.90;;;;;;4992636;28;20630;-71
2024/04/05 10:43:11;;;;;;;5.77;3.63;;;16.90;99.90;;;;;;4992005;28;20228;-73
2024/04/05 10:45:38;;;;;;;5.90;3.27;;;17.00;99.90;;;;;;4992051;28;20260;-72
2024/04/05 10:48:04;;;;;;;4.20;3.13;;;17.20;99.90;;;;;;4991605;28;20642;-72
2024/04/05 10:50:35;;;;;;;5.37;3.10;;;17.40;99.90;;;;;;4991620;28;20211;-72
2024/04/05 10:53:01;;;;;;;4.97;3.47;;;17.70;99.90;;;;;;4991977;28;20196;-72
2024/04/05 10:55:26;;;;;;;6.10;3.70;;;17.90;99.90;;;;;;4992014;28;20208;-73
2024/04/05 10:57:52;;;;;;;4.30;3.30;;;18.00;99.90;;;;;;4991559;28;20185;-72
2024/04/05 11:00:19;;;;;;;3.53;2.77;;;18.10;99.90;;;;;;4991737;28;21303;-72
2024/04/05 11:02:44;;;;;;;4.37;2.97;;;18.10;99.90;;;;;;4991988;28;20677;-74
2024/04/05 11:05:13;;;;;;;3.53;3.03;;;18.20;99.90;;;;;;4992171;28;20176;-72
2024/04/05 11:07:40;;;;;;;3.37;2.73;;;18.30;99.90;;;;;;4990547;28;20184;-74
2024/04/05 11:10:33;;;;;;;3.80;3.00;;;18.30;99.90;;;;;;4991689;28;20264;-74
2024/04/05 11:13:00;;;;;;;4.10;3.80;;;18.30;99.90;;;;;;4993138;28;20220;-73
2024/04/05 11:15:26;;;;;;;5.63;3.47;;;18.30;99.90;;;;;;4998520;28;20211;-70
2024/04/05 11:18:01;;;;;;;3.33;3.00;;;18.30;99.90;;;;;;4998154;28;20169;-73
2024/04/05 11:20:29;;;;;;;4.60;3.20;;;18.20;99.90;;;;;;4998550;28;20183;-74
2024/04/05 11:23:02;;;;;;;3.47;2.73;;;18.10;99.90;;;;;;4997047;28;20192;-74
2024/04/05 11:25:28;;;;;;;2.97;2.73;;;18.20;99.90;;;;;;4998195;28;20185;-73
2024/04/05 11:27:54;;;;;;;3.63;2.70;;;18.10;99.90;;;;;;4997970;28;20176;-72
2024/04/05 11:30:19;;;;;;;3.80;2.90;;;18.10;99.90;;;;;;4998296;28;20193;-72
2024/04/05 11:32:45;;;;;;;4.23;2.90;;;18.10;99.90;;;;;;4998629;28;20238;-72
2024/04/05 11:35:12;;;;;;;4.13;3.00;;;18.10;99.90;;;;;;4998375;28;20679;-72
2024/04/05 11:37:38;;;;;;;5.00;3.70;;;18.10;99.90;;;;;;4998023;28;20585;-71
2024/04/05 11:40:06;;;;;;;3.50;2.97;;;18.10;99.90;;;;;;4998378;28;20199;-72
2024/04/05 11:42:32;;;;;;;5.17;3.43;;;18.10;99.90;;;;;;4998287;28;20181;-73
2024/04/05 11:44:57;;;;;;;4.60;3.67;;;18.20;99.90;;;;;;4998570;28;20173;-73
2024/04/05 11:47:23;;;;;;;4.90;3.00;;;18.30;99.90;;;;;;4998717;28;20713;-73
2024/04/05 11:49:49;;;;;;;3.50;3.07;;;18.40;99.90;;;;;;4997264;28;20234;-74
2024/04/05 11:52:15;;;;;;;4.57;2.80;;;18.60;99.90;;;;;;4998047;28;20196;-73
2024/04/05 11:54:40;;;;;;;6.63;3.33;;;18.70;99.90;;;;;;4997701;28;20207;-73
2024/04/05 11:57:06;;;;;;;3.17;2.87;;;18.80;99.90;;;;;;4997698;28;20172;-72
2024/04/05 11:59:31;;;;;;;4.13;2.83;;;18.90;99.90;;;;;;4997728;28;20181;-73
2024/04/05 12:01:57;;;;;;;2.63;2.40;;;19.00;99.90;;;;;;4997486;28;20204;-73
2024/04/05 12:04:23;;;;;;;3.93;2.80;;;18.90;99.90;;;;;;4997832;28;20173;-72
2024/04/05 12:06:50;;;;;;;4.17;3.57;;;19.00;99.90;;;;;;4998214;28;20673;-73
2024/04/05 12:09:16;;;;;;;4.10;3.43;;;19.00;99.90;;;;;;4998177;28;20280;-75
2024/04/05 12:11:43;;;;;;;3.20;2.93;;;18.80;99.90;;;;;;4998328;28;20188;-73
2024/04/05 12:14:09;;;;;;;3.50;2.83;;;18.60;99.90;;;;;;4997010;28;20304;-75
2024/04/05 12:16:35;;;;;;;3.77;2.93;;;18.10;99.90;;;;;;4998118;28;20259;-72
2024/04/05 12:19:01;;;;;;;4.80;3.23;;;17.40;99.90;;;;;;4997475;28;20169;-74
2024/04/05 12:21:26;;;;;;;3.30;3.03;;;16.60;99.90;;;;;;4997982;28;20184;-73
2024/04/05 12:23:52;;;;;;;3.77;2.73;;;16.00;99.90;;;;;;4996580;28;20284;-73
2024/04/05 12:26:19;;;;;;;3.33;2.93;;;15.60;99.90;;;;;;4995433;28;20745;-74
2024/04/05 12:28:49;;;;;;;3.10;2.60;;;15.40;99.90;;;;;;4995053;28;20177;-75
2024/04/05 12:31:14;;;;;;;5.30;2.70;;;15.30;99.90;;;;;;4993999;28;20551;-72
2024/04/05 12:33:40;;;;;;;5.03;3.07;;;15.30;99.90;;;;;;4995255;28;20196;-79
2024/04/05 12:36:06;;;;;;;4.60;4.30;;;15.30;99.90;;;;;;4995036;28;20235;-75
2024/04/05 12:38:38;;;;;;;4.17;3.40;;;15.50;99.90;;;;;;4995081;28;20208;-73
2024/04/05 12:41:05;;;;;;;2.93;2.73;;;15.70;99.90;;;;;;4994798;28;20176;-76